createdAt,value
2022-09-27T00:01:38.737Z,0.70
2022-09-27T00:04:06.566Z,0.68
2022-09-27T00:06:38.614Z,0.52
2022-09-27T00:09:10.739Z,0.68
2022-09-27T00:11:42.731Z,0.65
2022-09-27T00:14:13.813Z,0.70
2022-09-27T00:16:43.655Z,0.63
2022-09-27T00:19:20.156Z,0.70
2022-09-27T00:21:48.599Z,0.90
2022-09-27T00:24:22.868Z,0.50
2022-09-27T00:26:50.805Z,0.60
2022-09-27T00:29:20.049Z,0.70
2022-09-27T00:31:48.412Z,0.95
2022-09-27T00:34:25.906Z,0.85
2022-09-27T00:36:53.842Z,0.60
2022-09-27T00:39:22.178Z,0.60
2022-09-27T00:41:50.055Z,0.70
2022-09-27T00:44:29.659Z,0.80
2022-09-27T00:47:08.099Z,0.70
2022-09-27T00:49:38.391Z,0.63
2022-09-27T00:52:16.925Z,0.70
2022-09-27T00:54:52.028Z,0.70
2022-09-27T00:57:22.448Z,0.52
2022-09-27T01:00:01.785Z,0.52
2022-09-27T01:02:31.020Z,0.32
2022-09-27T01:04:59.391Z,0.43
2022-09-27T01:07:27.190Z,0.70
2022-09-27T01:09:55.040Z,0.60
2022-09-27T01:12:58.711Z,0.60
2022-09-27T01:15:56.207Z,0.47
2022-09-27T01:18:48.577Z,0.50
2022-09-27T01:21:33.248Z,0.50
2022-09-27T01:24:31.807Z,0.70
2022-09-27T01:27:29.387Z,0.52
2022-09-27T01:30:18.287Z,0.65
2022-09-27T01:33:11.269Z,0.50
2022-09-27T01:35:42.560Z,0.40
2022-09-27T01:38:43.659Z,0.40
2022-09-27T01:41:29.278Z,0.45
2022-09-27T01:44:39.645Z,0.70
2022-09-27T01:47:20.444Z,0.43
2022-09-27T01:50:34.242Z,0.70
2022-09-27T01:53:36.359Z,0.63
2022-09-27T01:56:49.108Z,0.60
2022-09-27T01:59:35.646Z,0.60
2022-09-27T02:02:21.467Z,0.60
2022-09-27T02:05:13.769Z,0.60
2022-09-27T02:07:51.597Z,0.52
2022-09-27T02:10:31.506Z,0.80
2022-09-27T02:13:26.371Z,0.60
2022-09-27T02:16:37.486Z,0.52
2022-09-27T02:19:52.485Z,0.52
2022-09-27T02:22:54.055Z,0.70
2022-09-27T02:25:42.758Z,0.33
2022-09-27T02:28:36.315Z,0.73
2022-09-27T02:31:05.950Z,0.65
2022-09-27T02:34:03.764Z,0.80
2022-09-27T02:36:31.754Z,1.30
2022-09-27T02:39:00.248Z,1.20
2022-09-27T02:41:30.103Z,0.90
2022-09-27T02:44:04.217Z,0.90
2022-09-27T02:46:48.385Z,1.00
2022-09-27T02:50:13.112Z,1.20
2022-09-27T02:53:38.240Z,0.90
2022-09-27T02:56:55.601Z,0.98
2022-09-27T03:00:15.582Z,1.30
2022-09-27T03:03:51.134Z,1.30
2022-09-27T03:06:23.395Z,1.07
2022-09-27T03:08:51.912Z,1.50
2022-09-27T03:11:19.915Z,1.43
2022-09-27T03:14:07.327Z,1.80
2022-09-27T03:16:37.737Z,2.10
2022-09-27T03:19:28.435Z,2.13
2022-09-27T03:22:15.998Z,2.90
2022-09-27T03:24:44.280Z,1.30
2022-09-27T03:27:12.771Z,1.60
2022-09-27T03:29:40.714Z,2.10
2022-09-27T03:32:10.793Z,1.90
2022-09-27T03:35:16.789Z,2.67
2022-09-27T03:37:44.921Z,2.53
2022-09-27T03:40:13.125Z,2.60
2022-09-27T03:42:43.207Z,1.87
2022-09-27T03:45:14.309Z,2.25
2022-09-27T03:47:42.266Z,2.37
2022-09-27T03:50:12.538Z,2.40
2022-09-27T03:52:42.803Z,2.30
2022-09-27T03:55:11.790Z,1.63
2022-09-27T03:57:39.672Z,1.90
2022-09-27T04:00:09.521Z,2.27
2022-09-27T04:02:40.485Z,1.93
2022-09-27T04:05:26.308Z,1.52
2022-09-27T04:08:00.554Z,2.73
2022-09-27T04:10:29.568Z,3.20
2022-09-27T04:12:57.436Z,2.20
2022-09-27T04:15:28.127Z,1.77
2022-09-27T04:18:18.301Z,1.90
2022-09-27T04:21:04.436Z,2.23
2022-09-27T04:23:34.084Z,1.80
2022-09-27T04:26:02.630Z,1.67
2022-09-27T04:28:54.086Z,2.00
2022-09-27T04:31:23.040Z,2.83
2022-09-27T04:34:09.603Z,2.83
2022-09-27T04:36:37.473Z,2.10
2022-09-27T04:39:11.549Z,1.90
2022-09-27T04:41:42.996Z,2.23
2022-09-27T04:44:11.324Z,1.90
2022-09-27T04:46:41.909Z,1.87
2022-09-27T04:49:11.443Z,1.77
2022-09-27T04:51:39.495Z,1.97
2022-09-27T04:54:07.256Z,1.57
2022-09-27T04:56:39.899Z,1.70
2022-09-27T04:59:10.974Z,1.67
2022-09-27T05:01:41.515Z,1.40
2022-09-27T05:04:18.113Z,1.67
2022-09-27T05:06:54.880Z,1.40
2022-09-27T05:09:37.485Z,1.30
2022-09-27T05:12:07.834Z,1.42
2022-09-27T05:14:46.152Z,1.33
2022-09-27T05:17:34.209Z,1.23
2022-09-27T05:20:21.077Z,1.40
2022-09-27T05:23:12.051Z,1.00
2022-09-27T05:25:39.994Z,1.20
2022-09-27T05:28:09.235Z,1.63
2022-09-27T05:30:37.097Z,1.53
2022-09-27T05:33:09.704Z,1.20
2022-09-27T05:35:54.883Z,1.40
2022-09-27T05:38:26.419Z,1.33
2022-09-27T05:40:57.676Z,1.50
2022-09-27T05:43:26.304Z,1.87
2022-09-27T05:45:55.125Z,1.50
2022-09-27T05:48:23.687Z,1.43
2022-09-27T05:51:00.869Z,1.53
2022-09-27T05:53:29.128Z,1.50
2022-09-27T05:56:00.735Z,1.87
2022-09-27T05:58:35.755Z,1.27
2022-09-27T06:01:13.930Z,1.93
2022-09-27T06:04:03.699Z,1.90
2022-09-27T06:06:59.422Z,1.67
2022-09-27T06:09:29.021Z,1.57
2022-09-27T06:11:57.409Z,2.20
2022-09-27T06:14:25.427Z,1.60
2022-09-27T06:17:08.140Z,1.77
2022-09-27T06:19:40.920Z,1.73
2022-09-27T06:22:09.036Z,1.67
2022-09-27T06:24:48.021Z,1.60
2022-09-27T06:27:21.192Z,1.38
2022-09-27T06:29:57.947Z,1.20
2022-09-27T06:32:39.125Z,1.40
2022-09-27T06:35:36.593Z,1.30
2022-09-27T06:38:10.138Z,1.20
2022-09-27T06:40:47.948Z,1.03
2022-09-27T06:43:21.776Z,0.70
2022-09-27T06:46:08.397Z,0.80
2022-09-27T06:48:55.091Z,0.90
2022-09-27T06:51:23.130Z,0.80
2022-09-27T06:53:51.016Z,0.90
2022-09-27T06:56:19.514Z,0.80
2022-09-27T06:59:15.327Z,0.80
2022-09-27T07:01:44.761Z,0.70
2022-09-27T07:04:19.279Z,0.70
2022-09-27T07:06:57.889Z,0.80
2022-09-27T07:09:28.430Z,2.20
2022-09-27T07:11:56.770Z,2.77
2022-09-27T07:14:26.592Z,1.43
2022-09-27T07:16:55.399Z,1.90
2022-09-27T07:19:23.231Z,1.10
2022-09-27T07:21:52.803Z,1.03
2022-09-27T07:24:20.849Z,1.10
2022-09-27T07:26:50.110Z,0.93
2022-09-27T07:29:20.959Z,0.90
2022-09-27T07:31:52.430Z,1.17
2022-09-27T07:34:20.565Z,1.30
2022-09-27T07:36:48.304Z,1.30
2022-09-27T07:39:16.354Z,1.00
2022-09-27T07:41:44.887Z,1.20
2022-09-27T07:44:16.384Z,0.83
2022-09-27T07:47:08.315Z,1.30
2022-09-27T07:49:54.592Z,1.60
2022-09-27T07:52:51.392Z,1.40
2022-09-27T07:55:36.904Z,1.47
2022-09-27T07:58:18.079Z,1.10
2022-09-27T08:00:46.710Z,1.40
2022-09-27T08:03:17.666Z,1.67
2022-09-27T08:05:48.004Z,1.17
2022-09-27T08:08:17.538Z,1.40
2022-09-27T08:10:47.246Z,1.20
2022-09-27T08:13:20.407Z,1.43
2022-09-27T08:15:52.534Z,1.40
2022-09-27T08:18:22.234Z,1.00
2022-09-27T08:20:59.673Z,0.80
2022-09-27T08:23:37.175Z,1.33
2022-09-27T08:26:13.831Z,1.10
2022-09-27T08:29:01.930Z,1.00
2022-09-27T08:31:32.816Z,1.30
2022-09-27T08:34:00.770Z,1.10
2022-09-27T08:36:29.722Z,1.10
2022-09-27T08:38:59.253Z,1.30
2022-09-27T08:41:57.493Z,1.53
2022-09-27T08:44:48.657Z,1.60
2022-09-27T08:47:40.760Z,1.85
2022-09-27T08:50:39.042Z,1.43
2022-09-27T08:53:14.762Z,2.20
2022-09-27T08:55:57.751Z,1.90
2022-09-27T08:58:48.684Z,1.67
2022-09-27T09:01:27.805Z,1.70
2022-09-27T09:04:31.276Z,1.58
2022-09-27T09:07:17.316Z,1.53
2022-09-27T09:10:39.730Z,1.67
2022-09-27T09:13:58.220Z,2.23
2022-09-27T09:16:56.294Z,1.70
2022-09-27T09:19:45.103Z,1.70
2022-09-27T09:23:04.709Z,1.57
2022-09-27T09:25:35.375Z,1.80
2022-09-27T09:28:13.870Z,2.27
2022-09-27T09:31:31.256Z,1.38
2022-09-27T09:34:15.571Z,1.23
2022-09-27T09:36:56.742Z,1.85
2022-09-27T09:39:39.060Z,1.60
2022-09-27T09:42:25.674Z,1.42
2022-09-27T09:45:19.974Z,1.70
2022-09-27T09:48:35.951Z,1.98
2022-09-27T09:51:10.817Z,1.80
2022-09-27T09:54:05.340Z,1.60
2022-09-27T09:56:45.813Z,1.83
2022-09-27T09:59:35.759Z,2.03
2022-09-27T10:02:30.460Z,1.80
2022-09-27T10:05:08.033Z,1.67
2022-09-27T10:07:39.369Z,1.73
2022-09-27T10:10:12.320Z,1.45
2022-09-27T10:12:47.552Z,1.50
2022-09-27T10:15:28.256Z,1.67
2022-09-27T10:18:00.157Z,2.42
2022-09-27T10:20:43.778Z,1.70
2022-09-27T10:23:21.208Z,1.58
2022-09-27T10:26:12.228Z,1.95
2022-09-27T10:28:47.594Z,2.90
2022-09-27T10:31:22.959Z,1.58
2022-09-27T10:34:37.369Z,1.67
2022-09-27T10:37:13.157Z,1.85
2022-09-27T10:39:53.754Z,1.67
2022-09-27T10:42:35.679Z,2.13
2022-09-27T10:45:33.097Z,1.30
2022-09-27T10:48:22.944Z,1.88
2022-09-27T10:51:02.701Z,1.80
2022-09-27T10:53:44.806Z,1.25
2022-09-27T10:56:27.862Z,1.30
2022-09-27T10:58:58.177Z,1.23
2022-09-27T11:01:38.284Z,1.40
2022-09-27T11:04:35.139Z,1.67
2022-09-27T11:07:16.198Z,1.40
2022-09-27T11:10:02.909Z,11.25
2022-09-27T11:12:35.519Z,9.82
2022-09-27T11:15:14.549Z,10.68
2022-09-27T11:18:05.827Z,4.15
2022-09-27T11:21:09.840Z,2.08
2022-09-27T11:24:08.791Z,1.50
2022-09-27T11:27:13.572Z,1.70
2022-09-27T11:30:01.159Z,1.80
2022-09-27T11:33:05.920Z,2.30
2022-09-27T11:36:03.004Z,2.10
2022-09-27T11:39:02.360Z,1.40
2022-09-27T11:41:39.126Z,1.20
2022-09-27T11:44:19.848Z,1.08
2022-09-27T11:46:57.578Z,0.70
2022-09-27T11:49:40.816Z,0.63
2022-09-27T11:52:47.575Z,0.70
2022-09-27T11:55:19.590Z,0.40
2022-09-27T11:58:20.911Z,0.70
2022-09-27T12:01:14.252Z,0.67
2022-09-27T12:03:59.513Z,0.45
2022-09-27T12:06:39.145Z,0.70
2022-09-27T12:09:19.688Z,1.00
2022-09-27T12:12:22.748Z,0.50
2022-09-27T12:15:24.887Z,0.60
2022-09-27T12:18:10.218Z,0.60
2022-09-27T12:20:41.095Z,1.00
2022-09-27T12:23:38.326Z,1.00
2022-09-27T12:26:26.535Z,0.80
2022-09-27T12:29:10.263Z,0.73
2022-09-27T12:32:13.864Z,0.80
2022-09-27T12:35:23.609Z,0.80
2022-09-27T12:38:10.883Z,0.87
2022-09-27T12:40:48.477Z,0.80
2022-09-27T12:43:32.002Z,0.97
2022-09-27T12:47:08.944Z,0.95
2022-09-27T12:50:01.728Z,0.90
2022-09-27T12:52:39.174Z,1.20
2022-09-27T12:55:55.795Z,0.93
2022-09-27T12:58:48.827Z,1.67
2022-09-27T13:02:00.241Z,1.17
2022-09-27T13:04:46.745Z,1.00
2022-09-27T13:10:20.520Z,1.30
2022-09-27T13:12:56.100Z,1.17
2022-09-27T13:15:36.719Z,1.17
2022-09-27T13:18:38.462Z,1.33
2022-09-27T13:21:09.544Z,1.30
2022-09-27T13:23:44.437Z,4.70
2022-09-27T13:26:44.516Z,2.73
2022-09-27T13:29:30.115Z,1.10
2022-09-27T13:32:15.245Z,1.30
2022-09-27T13:35:18.602Z,1.10
2022-09-27T13:37:59.408Z,1.20
2022-09-27T13:40:40.585Z,1.60
2022-09-27T13:43:11.431Z,0.90
2022-09-27T13:45:57.574Z,1.43
2022-09-27T13:48:44.076Z,1.03
2022-09-27T13:51:48.009Z,1.10
2022-09-27T13:54:34.555Z,1.30
2022-09-27T13:57:07.632Z,0.90
2022-09-27T13:59:52.563Z,0.80
2022-09-27T14:03:12.660Z,1.00
2022-09-27T14:05:49.283Z,1.10
2022-09-27T14:08:50.746Z,1.13
2022-09-27T14:11:32.458Z,0.90
2022-09-27T14:14:02.285Z,1.10
2022-09-27T14:16:40.550Z,1.20
2022-09-27T14:19:26.132Z,1.30
2022-09-27T14:21:55.485Z,2.17
2022-09-27T14:24:35.990Z,1.60
2022-09-27T14:27:20.357Z,1.67
2022-09-27T14:30:02.542Z,3.10
2022-09-27T14:32:46.982Z,2.35
2022-09-27T14:35:44.998Z,1.60
2022-09-27T14:38:37.041Z,0.80
2022-09-27T14:41:10.840Z,1.00
2022-09-27T14:43:45.331Z,1.03
2022-09-27T14:46:32.256Z,1.00
2022-09-27T14:49:20.776Z,1.37
2022-09-27T14:51:54.769Z,1.00
2022-09-27T14:54:26.920Z,0.70
2022-09-27T14:56:56.301Z,0.80
2022-09-27T14:59:34.572Z,1.30
2022-09-27T15:02:15.246Z,1.53
2022-09-27T15:04:48.121Z,1.10
2022-09-27T15:07:17.149Z,1.07
2022-09-27T15:09:45.809Z,1.80
2022-09-27T15:12:24.907Z,1.30
2022-09-27T15:14:56.257Z,1.17
2022-09-27T15:17:25.323Z,1.30
2022-09-27T15:20:03.517Z,1.47
2022-09-27T15:22:43.880Z,1.20
2022-09-27T15:25:43.714Z,1.17
2022-09-27T15:28:11.327Z,1.17
2022-09-27T15:30:50.999Z,1.23
2022-09-27T15:33:26.149Z,0.70
2022-09-27T15:35:58.202Z,0.93
2022-09-27T15:38:39.392Z,0.77
2022-09-27T15:41:13.734Z,1.10
2022-09-27T15:43:52.808Z,1.08
2022-09-27T15:46:27.846Z,1.00
2022-09-27T15:49:17.641Z,1.38
2022-09-27T15:51:53.901Z,1.20
2022-09-27T15:54:30.808Z,1.50
2022-09-27T15:57:05.505Z,1.10
2022-09-27T15:59:35.781Z,1.13
2022-09-27T16:02:14.374Z,0.90
2022-09-27T16:04:42.260Z,1.30
2022-09-27T16:07:11.802Z,1.07
2022-09-27T16:09:39.704Z,1.00
2022-09-27T16:12:07.420Z,1.50
2022-09-27T16:14:35.159Z,1.00
2022-09-27T16:17:03.083Z,0.93
2022-09-27T16:19:30.808Z,1.10
2022-09-27T16:21:58.645Z,1.00
2022-09-27T16:24:28.040Z,1.10
2022-09-27T16:26:55.957Z,0.98
2022-09-27T16:29:23.854Z,2.10
2022-09-27T16:31:53.611Z,1.30
2022-09-27T16:34:21.538Z,1.23
2022-09-27T16:36:52.390Z,1.30
2022-09-27T16:39:20.133Z,1.40
2022-09-27T16:41:48.321Z,1.50
2022-09-27T16:44:18.900Z,1.20
2022-09-27T16:46:46.703Z,2.30
2022-09-27T16:49:33.854Z,1.47
2022-09-27T16:52:01.846Z,1.20
2022-09-27T16:54:30.536Z,1.47
2022-09-27T16:56:59.659Z,1.40
2022-09-27T16:59:28.045Z,1.43
2022-09-27T17:01:57.769Z,1.63
2022-09-27T17:04:28.244Z,1.13
2022-09-27T17:06:57.104Z,2.30
2022-09-27T17:09:25.425Z,2.47
2022-09-27T17:11:53.423Z,1.10
2022-09-27T17:14:21.696Z,0.93
2022-09-27T17:16:49.834Z,1.40
2022-09-27T17:19:18.546Z,1.00
2022-09-27T17:21:46.831Z,1.30
2022-09-27T17:24:15.124Z,1.40
2022-09-27T17:26:43.536Z,1.40
2022-09-27T17:29:13.063Z,2.43
2022-09-27T17:31:42.397Z,1.50
2022-09-27T17:34:13.220Z,1.67
2022-09-27T17:36:45.077Z,1.20
2022-09-27T17:39:15.960Z,0.93
2022-09-27T17:41:43.900Z,1.30
2022-09-27T17:44:14.895Z,1.13
2022-09-27T17:46:43.134Z,1.40
2022-09-27T17:49:31.041Z,1.40
2022-09-27T17:51:59.323Z,1.30
2022-09-27T17:54:28.272Z,1.00
2022-09-27T17:56:56.600Z,1.30
2022-09-27T17:59:24.525Z,2.07
2022-09-27T18:01:53.339Z,1.40
2022-09-27T18:04:21.215Z,1.53
2022-09-27T18:06:48.992Z,1.40
2022-09-27T18:09:17.387Z,1.20
2022-09-27T18:11:45.589Z,1.30
2022-09-27T18:14:13.677Z,1.43
2022-09-27T18:16:43.890Z,2.40
2022-09-27T18:19:15.987Z,1.67
2022-09-27T18:21:43.957Z,1.33
2022-09-27T18:24:14.415Z,0.90
2022-09-27T18:26:43.812Z,1.30
2022-09-27T18:29:14.919Z,1.20
2022-09-27T18:31:48.215Z,1.10
2022-09-27T18:34:18.492Z,1.20
2022-09-27T18:36:47.148Z,0.87
2022-09-27T18:39:19.394Z,0.90
2022-09-27T18:41:49.341Z,0.87
2022-09-27T18:44:18.540Z,1.10
2022-09-27T18:46:47.465Z,1.23
2022-09-27T18:49:15.463Z,1.07
2022-09-27T18:51:46.276Z,2.50
2022-09-27T18:54:22.470Z,1.97
2022-09-27T18:56:52.402Z,4.17
2022-09-27T18:59:24.169Z,2.80
2022-09-27T19:01:52.412Z,4.77
2022-09-27T19:04:25.948Z,4.77
2022-09-27T19:06:57.117Z,2.00
2022-09-27T19:09:26.782Z,1.67
2022-09-27T19:11:54.854Z,1.80
2022-09-27T19:14:23.446Z,1.63
2022-09-27T19:16:51.586Z,1.20
2022-09-27T19:19:20.303Z,1.20
2022-09-27T19:21:48.972Z,1.20
2022-09-27T19:24:18.219Z,0.90
2022-09-27T19:26:46.192Z,0.87
2022-09-27T19:29:14.886Z,0.77
2022-09-27T19:31:42.962Z,1.00
2022-09-27T19:34:11.340Z,1.00
2022-09-27T19:36:39.092Z,1.17
2022-09-27T19:39:07.063Z,1.07
2022-09-27T19:41:34.830Z,1.10
2022-09-27T19:44:02.601Z,1.10
2022-09-27T19:46:30.443Z,1.17
2022-09-27T19:48:58.432Z,1.23
2022-09-27T19:51:28.433Z,1.00
2022-09-27T19:53:56.942Z,2.87
2022-09-27T19:56:25.444Z,2.50
2022-09-27T19:58:53.411Z,2.13
2022-09-27T20:01:24.242Z,1.50
2022-09-27T20:03:55.905Z,1.67
2022-09-27T20:06:23.730Z,0.90
2022-09-27T20:08:51.691Z,1.10
2022-09-27T20:11:22.381Z,0.90
2022-09-27T20:13:52.700Z,0.83
2022-09-27T20:16:24.348Z,2.30
2022-09-27T20:18:57.738Z,0.60
2022-09-27T20:21:29.228Z,0.73
2022-09-27T20:23:58.416Z,0.70
2022-09-27T20:26:29.297Z,0.90
2022-09-27T20:29:00.030Z,1.00
2022-09-27T20:31:36.814Z,0.77
2022-09-27T20:34:07.526Z,1.33
2022-09-27T20:36:38.626Z,0.90
2022-09-27T20:39:12.149Z,0.73
2022-09-27T20:41:46.100Z,0.88
2022-09-27T20:46:46.001Z,0.77
2022-09-27T20:49:18.959Z,2.20
2022-09-27T20:51:51.445Z,1.17
2022-09-27T20:54:19.312Z,1.40
2022-09-27T20:56:48.768Z,2.27
2022-09-27T20:59:23.465Z,2.50
2022-09-27T21:01:53.445Z,3.67
2022-09-27T21:04:22.445Z,3.63
2022-09-27T21:06:51.578Z,2.30
2022-09-27T21:09:19.991Z,2.97
2022-09-27T21:11:51.825Z,3.50
2022-09-27T21:14:20.075Z,4.40
2022-09-27T21:16:47.892Z,6.20
2022-09-27T21:19:15.754Z,4.70
2022-09-27T21:21:43.684Z,4.30
2022-09-27T21:24:11.815Z,3.43
2022-09-27T21:26:39.565Z,2.20
2022-09-27T21:29:09.808Z,1.30
2022-09-27T21:31:38.721Z,1.17
2022-09-27T21:34:06.921Z,1.70
2022-09-27T21:36:38.609Z,1.20
2022-09-27T21:39:08.705Z,1.30
2022-09-27T21:41:38.870Z,0.80
2022-09-27T21:44:07.962Z,0.80
2022-09-27T21:46:39.632Z,1.10
2022-09-27T21:49:07.733Z,1.30
2022-09-27T21:51:41.366Z,0.93
2022-09-27T21:54:15.424Z,1.02
2022-09-27T21:56:44.645Z,0.90
2022-09-27T21:59:18.535Z,0.97
2022-09-27T22:01:47.009Z,0.90
2022-09-27T22:04:15.069Z,1.17
2022-09-27T22:06:42.906Z,0.90
2022-09-27T22:09:17.091Z,1.07
2022-09-27T22:11:47.502Z,0.80
2022-09-27T22:14:18.356Z,0.80
2022-09-27T22:16:47.823Z,1.00
2022-09-27T22:19:16.999Z,0.80
2022-09-27T22:21:45.159Z,0.60
2022-09-27T22:24:18.201Z,0.90
2022-09-27T22:26:50.278Z,0.88
2022-09-27T22:29:18.690Z,0.70
2022-09-27T22:31:46.713Z,1.03
2022-09-27T22:34:20.677Z,0.80
2022-09-27T22:39:16.238Z,0.70
2022-09-27T22:41:44.095Z,1.00
2022-09-27T22:44:11.843Z,0.63
2022-09-27T22:46:39.670Z,0.63
2022-09-27T22:49:07.521Z,0.90
2022-09-27T22:51:35.263Z,0.80
2022-09-27T22:54:03.207Z,0.90
2022-09-27T22:56:30.975Z,0.90
2022-09-27T22:58:58.855Z,0.77
2022-09-27T23:01:26.631Z,0.50
2022-09-27T23:03:55.737Z,0.77
2022-09-27T23:06:23.985Z,0.77
2022-09-27T23:08:52.413Z,0.90
2022-09-27T23:11:22.697Z,0.80
2022-09-27T23:13:51.520Z,0.70
2022-09-27T23:16:24.807Z,0.70
2022-09-27T23:18:54.984Z,0.80
2022-09-27T23:21:26.260Z,0.57
2022-09-27T23:23:56.695Z,0.87
2022-09-27T23:26:27.147Z,0.60
2022-09-27T23:29:01.312Z,0.90
2022-09-27T23:31:31.721Z,0.70
2022-09-27T23:34:03.848Z,0.70
2022-09-27T23:36:31.603Z,0.70
2022-09-27T23:39:01.193Z,0.90
2022-09-27T23:41:29.376Z,0.80
2022-09-27T23:43:57.189Z,0.80
2022-09-27T23:46:25.339Z,0.87
2022-09-27T23:48:53.636Z,0.90
2022-09-27T23:51:21.453Z,0.90
2022-09-27T23:53:49.441Z,1.00
2022-09-27T23:56:18.134Z,0.90
2022-09-27T23:58:46.847Z,0.97
